Time;durP1;ratioP1;P1;durP2;ratioP2;P2;SDS_P1;SDS_P2;PMS_P1;PMS_P2;Temp;Humidity;BMP_temperature;BMP_pressure;BME280_temperature;BME280_humidity;BME280_pressure;Samples;Min_cycle;Max_cycle;Signal;HPM_P1;HPM_P2
2022/06/19 00:01:03;;;;;;;7.57;1.65;;;20.70;99.90;;;;;;7341949;19;108971;-85
2022/06/19 00:03:40;;;;;;;10.93;2.13;;;20.80;99.90;;;;;;7342845;19;108972;-84
2022/06/19 00:06:08;;;;;;;9.70;2.13;;;20.80;99.90;;;;;;7343310;19;108268;-84
2022/06/19 00:08:35;;;;;;;6.38;2.00;;;20.80;99.90;;;;;;7344974;19;108744;-84
2022/06/19 00:11:04;;;;;;;7.05;1.45;;;20.80;99.90;;;;;;7339505;19;108472;-84
2022/06/19 00:13:32;;;;;;;3.53;1.27;;;20.80;99.90;;;;;;7341869;19;107576;-84
2022/06/19 00:16:00;;;;;;;7.32;1.50;;;20.70;99.90;;;;;;7344249;19;107966;-84
2022/06/19 00:18:27;;;;;;;8.65;1.48;;;20.60;99.90;;;;;;7339885;19;110480;-84
2022/06/19 00:20:54;;;;;;;12.20;1.75;;;20.70;99.90;;;;;;7340208;19;109306;-84
2022/06/19 00:23:21;;;;;;;8.82;1.60;;;20.80;99.90;;;;;;7340050;19;109457;-85
2022/06/19 00:25:49;;;;;;;5.30;1.60;;;20.60;99.90;;;;;;7341090;19;109256;-83
2022/06/19 00:28:16;;;;;;;12.18;1.83;;;20.40;99.90;;;;;;7337497;19;109028;-84
2022/06/19 00:30:43;;;;;;;7.15;1.30;;;20.30;99.90;;;;;;7338636;19;108918;-84
2022/06/19 00:33:10;;;;;;;5.53;1.52;;;20.40;99.90;;;;;;7341212;19;108327;-83
2022/06/19 00:35:37;;;;;;;10.43;2.00;;;20.60;99.90;;;;;;7339968;19;108556;-84
2022/06/19 00:38:04;;;;;;;9.77;1.95;;;20.60;99.90;;;;;;7346459;19;108749;-84
2022/06/19 00:40:32;;;;;;;10.80;1.60;;;20.60;99.90;;;;;;7341749;19;108727;-85
2022/06/19 00:43:00;;;;;;;11.45;1.70;;;20.60;99.90;;;;;;7341248;19;108815;-84
2022/06/19 00:45:30;;;;;;;12.57;2.20;;;20.60;99.90;;;;;;7341635;19;107999;-85
2022/06/19 00:47:59;;;;;;;9.80;2.15;;;20.50;99.90;;;;;;7340628;19;109554;-84
2022/06/19 00:50:33;;;;;;;15.13;2.08;;;20.50;99.90;;;;;;7340279;19;109314;-84
2022/06/19 00:53:04;;;;;;;12.55;2.00;;;20.40;99.90;;;;;;7341384;19;107335;-84
2022/06/19 00:55:36;;;;;;;10.98;2.00;;;20.20;99.90;;;;;;7341448;19;108543;-85
2022/06/19 00:58:11;;;;;;;11.32;2.35;;;20.00;99.90;;;;;;7340203;19;108904;-84
2022/06/19 01:00:40;;;;;;;10.57;1.85;;;19.90;99.90;;;;;;7347354;19;107970;-84
2022/06/19 01:03:15;;;;;;;18.95;2.30;;;19.70;99.90;;;;;;7342840;19;108972;-85
2022/06/19 01:05:46;;;;;;;12.90;2.15;;;19.80;99.90;;;;;;7342133;19;110658;-84
2022/06/19 01:08:14;;;;;;;10.20;1.90;;;19.90;99.90;;;;;;7341880;19;109063;-84
2022/06/19 01:10:44;;;;;;;8.63;1.70;;;20.00;99.90;;;;;;7338422;19;109202;-84
2022/06/19 01:13:13;;;;;;;13.02;2.10;;;19.90;99.90;;;;;;7339435;19;108213;-83
2022/06/19 01:15:41;;;;;;;8.95;1.70;;;19.90;99.90;;;;;;7342429;19;111233;-85
2022/06/19 01:18:10;;;;;;;9.57;2.30;;;19.80;99.90;;;;;;7342070;19;108946;-85
2022/06/19 01:20:39;;;;;;;27.75;2.20;;;19.90;99.90;;;;;;7345950;19;107692;-84
2022/06/19 01:23:51;;;;;;;11.65;1.83;;;19.80;99.90;;;;;;7341350;19;111164;-84
2022/06/19 01:26:19;;;;;;;14.55;1.92;;;19.70;99.90;;;;;;7338436;19;110463;-84
2022/06/19 01:28:55;;;;;;;9.02;1.50;;;19.50;99.90;;;;;;7339380;19;108661;-84
2022/06/19 01:31:33;;;;;;;17.23;1.67;;;19.40;99.70;;;;;;7340548;19;108829;-84
2022/06/19 01:34:27;;;;;;;17.85;1.67;;;19.50;99.40;;;;;;7342018;19;108310;-84
2022/06/19 01:37:03;;;;;;;11.38;1.65;;;19.50;98.70;;;;;;7341828;19;108882;-84
2022/06/19 01:39:37;;;;;;;14.40;1.88;;;19.30;98.20;;;;;;7341521;19;108800;-83
2022/06/19 01:42:05;;;;;;;8.85;1.70;;;19.20;98.30;;;;;;7339218;19;107593;-84
2022/06/19 01:44:32;;;;;;;10.88;1.85;;;19.10;98.10;;;;;;7346275;19;108212;-84
2022/06/19 01:47:01;;;;;;;11.02;1.52;;;19.10;97.90;;;;;;7340943;19;108357;-85
2022/06/19 01:49:33;;;;;;;10.13;1.35;;;19.00;97.40;;;;;;7339034;19;108398;-84
2022/06/19 01:52:03;;;;;;;11.70;1.65;;;19.00;96.90;;;;;;7337786;19;108086;-84
2022/06/19 01:54:36;;;;;;;11.23;1.70;;;18.90;96.20;;;;;;7338801;19;111077;-84
2022/06/19 01:57:08;;;;;;;6.70;1.35;;;18.90;95.10;;;;;;7338152;19;108626;-83
2022/06/19 01:59:37;;;;;;;5.75;1.63;;;18.80;94.40;;;;;;7339418;19;112088;-83
2022/06/19 02:02:08;;;;;;;8.07;1.40;;;18.70;94.30;;;;;;7339974;19;107857;-84
2022/06/19 02:04:35;;;;;;;8.95;1.27;;;18.70;93.50;;;;;;7338570;19;108175;-84
2022/06/19 02:07:10;;;;;;;9.50;1.50;;;18.60;93.40;;;;;;7345151;19;108241;-85
2022/06/19 02:09:37;;;;;;;10.15;1.65;;;18.60;92.50;;;;;;7339856;19;111056;-84
2022/06/19 02:12:05;;;;;;;9.25;1.42;;;18.50;92.40;;;;;;7335165;19;111477;-84
2022/06/19 02:14:34;;;;;;;10.68;1.63;;;18.50;92.30;;;;;;7338463;19;108274;-84
2022/06/19 02:17:16;;;;;;;9.52;1.35;;;18.40;92.00;;;;;;7339557;19;108691;-84
2022/06/19 02:19:44;;;;;;;7.97;1.23;;;18.40;92.00;;;;;;7339598;19;109881;-84
2022/06/19 02:22:13;;;;;;;8.77;1.13;;;18.40;92.10;;;;;;7336696;19;108170;-84
2022/06/19 02:24:42;;;;;;;7.70;1.40;;;18.40;91.90;;;;;;7337684;19;108799;-84
2022/06/19 02:27:09;;;;;;;13.15;1.90;;;18.40;92.10;;;;;;7337049;19;109430;-84
2022/06/19 02:29:39;;;;;;;6.00;1.08;;;18.40;92.00;;;;;;7344230;19;108264;-84
2022/06/19 02:32:21;;;;;;;5.85;1.50;;;18.50;92.20;;;;;;7336170;19;107942;-84
2022/06/19 02:34:50;;;;;;;7.30;1.30;;;18.50;92.20;;;;;;7340598;19;107891;-84
2022/06/19 02:37:21;;;;;;;5.80;1.17;;;18.50;92.20;;;;;;7345648;19;108117;-84
2022/06/19 02:40:09;;;;;;;4.28;0.80;;;18.50;92.40;;;;;;7342731;19;108379;-84
2022/06/19 02:42:44;;;;;;;10.57;1.30;;;18.50;92.60;;;;;;7344575;19;110225;-84
2022/06/19 02:45:27;;;;;;;9.18;1.55;;;18.40;92.40;;;;;;7342550;19;108502;-84
2022/06/19 02:47:57;;;;;;;7.47;1.17;;;18.30;92.60;;;;;;7343311;19;108052;-84
2022/06/19 02:50:27;;;;;;;7.70;1.10;;;18.20;92.90;;;;;;7344824;19;109153;-85
2022/06/19 02:52:58;;;;;;;6.18;0.98;;;17.90;93.30;;;;;;7348046;19;108509;-84
2022/06/19 02:55:25;;;;;;;5.93;1.10;;;17.80;93.80;;;;;;7342909;19;109900;-84
2022/06/19 02:57:52;;;;;;;11.02;1.20;;;17.70;93.90;;;;;;7345760;19;108490;-85
2022/06/19 03:00:23;;;;;;;8.70;1.30;;;17.60;94.30;;;;;;7343296;19;108551;-85
2022/06/19 03:02:54;;;;;;;9.90;1.00;;;17.40;94.80;;;;;;7344725;19;108284;-84
2022/06/19 03:05:26;;;;;;;6.40;1.02;;;17.30;95.10;;;;;;7342710;19;107455;-83
2022/06/19 03:07:54;;;;;;;7.85;1.13;;;17.40;95.10;;;;;;7344023;19;108680;-84
2022/06/19 03:10:21;;;;;;;4.40;1.15;;;17.50;95.00;;;;;;7344005;19;107988;-85
2022/06/19 03:12:49;;;;;;;9.02;1.05;;;17.60;95.00;;;;;;7343994;19;108641;-84
2022/06/19 03:15:17;;;;;;;2.88;1.02;;;17.50;95.20;;;;;;7349444;19;107663;-84
2022/06/19 03:17:44;;;;;;;4.78;0.88;;;17.50;95.40;;;;;;7346165;19;108323;-83
2022/06/19 03:20:15;;;;;;;6.13;1.08;;;17.40;95.90;;;;;;7345004;19;108834;-84
2022/06/19 03:22:42;;;;;;;6.88;0.88;;;17.30;96.10;;;;;;7345141;19;107936;-84
2022/06/19 03:25:10;;;;;;;5.35;0.60;;;17.20;96.40;;;;;;7344833;19;108486;-85
2022/06/19 03:27:37;;;;;;;7.38;1.10;;;17.10;96.70;;;;;;7340731;19;109258;-85
2022/06/19 03:30:05;;;;;;;7.90;1.10;;;17.20;96.50;;;;;;7345557;19;108023;-84
2022/06/19 03:32:32;;;;;;;4.85;1.02;;;17.50;96.30;;;;;;7341380;19;108235;-84
2022/06/19 03:34:59;;;;;;;7.57;1.10;;;17.60;96.00;;;;;;7347073;19;109557;-84
2022/06/19 03:37:27;;;;;;;6.53;0.93;;;17.70;96.10;;;;;;7341963;19;110952;-84
2022/06/19 03:39:54;;;;;;;6.35;1.08;;;17.60;95.60;;;;;;7343238;19;108301;-84
2022/06/19 03:42:21;;;;;;;5.65;1.00;;;17.50;95.60;;;;;;7344061;19;108306;-84
2022/06/19 03:44:48;;;;;;;11.27;0.95;;;17.50;95.60;;;;;;7344326;19;108581;-84
2022/06/19 03:47:19;;;;;;;9.65;1.20;;;17.40;95.00;;;;;;7339249;19;109163;-85
2022/06/19 03:49:48;;;;;;;20.63;1.00;;;17.10;94.30;;;;;;7341709;19;110000;-84
2022/06/19 03:52:15;;;;;;;6.72;0.90;;;16.90;94.30;;;;;;7341022;19;108609;-84
2022/06/19 03:54:43;;;;;;;6.30;0.90;;;16.90;94.20;;;;;;7341151;19;108840;-84
2022/06/19 03:57:14;;;;;;;12.25;1.23;;;16.80;94.30;;;;;;7347820;19;108679;-85
2022/06/19 03:59:42;;;;;;;9.30;0.80;;;16.80;94.20;;;;;;7342450;19;108891;-84
2022/06/19 04:02:10;;;;;;;6.95;0.80;;;16.80;93.90;;;;;;7345008;19;110624;-84
2022/06/19 04:04:39;;;;;;;4.85;0.88;;;16.80;93.70;;;;;;7344085;19;108402;-84
2022/06/19 04:07:09;;;;;;;6.20;1.10;;;16.80;93.60;;;;;;7343010;19;109365;-84
2022/06/19 04:09:37;;;;;;;3.38;0.70;;;16.80;93.10;;;;;;7340568;19;110542;-84
2022/06/19 04:12:05;;;;;;;10.13;1.38;;;16.70;93.00;;;;;;7341079;19;108706;-84
2022/06/19 04:14:32;;;;;;;6.95;0.80;;;16.80;93.00;;;;;;7342319;19;108989;-83
2022/06/19 04:16:59;;;;;;;3.40;0.90;;;16.80;93.00;;;;;;7343599;19;108057;-84
2022/06/19 04:19:27;;;;;;;7.30;0.90;;;16.90;92.80;;;;;;7345809;19;109142;-85
2022/06/19 04:21:55;;;;;;;7.93;1.30;;;17.00;92.90;;;;;;7343502;19;110150;-84
2022/06/19 04:24:22;;;;;;;2.35;0.77;;;17.00;92.80;;;;;;7342911;19;108991;-84
2022/06/19 04:26:49;;;;;;;5.28;0.60;;;17.10;93.00;;;;;;7340891;19;109872;-84
2022/06/19 04:29:18;;;;;;;7.28;0.80;;;17.10;93.00;;;;;;7338410;19;108161;-84
2022/06/19 04:31:45;;;;;;;8.73;0.70;;;17.20;93.00;;;;;;7341345;19;108239;-84
2022/06/19 04:34:12;;;;;;;2.47;0.70;;;17.40;93.10;;;;;;7341914;19;109276;-84
2022/06/19 04:36:39;;;;;;;9.40;1.20;;;17.50;92.90;;;;;;7340708;19;108463;-84
2022/06/19 04:39:06;;;;;;;3.90;0.70;;;17.60;92.90;;;;;;7341349;19;110551;-85
2022/06/19 04:41:39;;;;;;;8.05;1.10;;;17.60;92.70;;;;;;7347765;19;108891;-84
2022/06/19 04:44:13;;;;;;;7.10;0.82;;;17.70;92.50;;;;;;7340585;19;108801;-85
2022/06/19 04:46:41;;;;;;;7.25;0.80;;;17.80;92.20;;;;;;7342663;19;112349;-84
2022/06/19 04:49:12;;;;;;;7.75;1.33;;;17.90;91.90;;;;;;7340236;19;108246;-84
2022/06/19 04:51:39;;;;;;;6.53;0.68;;;17.90;91.80;;;;;;7340934;19;107711;-84
2022/06/19 04:54:06;;;;;;;5.07;0.68;;;17.90;91.40;;;;;;7338816;19;109094;-85
2022/06/19 04:56:34;;;;;;;4.13;0.43;;;17.90;91.40;;;;;;7341172;19;108456;-84
2022/06/19 04:59:01;;;;;;;3.58;0.80;;;17.90;91.50;;;;;;7337729;19;110397;-84
2022/06/19 05:01:31;;;;;;;3.58;0.70;;;17.90;90.90;;;;;;7339704;19;109900;-86
2022/06/19 05:04:01;;;;;;;3.15;0.80;;;17.90;90.90;;;;;;7345746;19;109421;-85
2022/06/19 05:06:29;;;;;;;6.13;0.80;;;17.90;90.80;;;;;;7340781;19;113016;-84
2022/06/19 05:08:57;;;;;;;3.28;0.70;;;18.00;91.00;;;;;;7338709;19;107628;-84
2022/06/19 05:11:26;;;;;;;3.42;0.70;;;18.10;90.90;;;;;;7341892;19;108248;-84
2022/06/19 05:13:53;;;;;;;7.07;0.60;;;18.20;91.10;;;;;;7341194;19;112003;-85
2022/06/19 05:16:23;;;;;;;10.75;0.77;;;18.40;91.00;;;;;;7337231;19;107966;-84
2022/06/19 05:18:53;;;;;;;3.70;0.60;;;18.50;90.70;;;;;;7340425;19;107868;-85
2022/06/19 05:21:22;;;;;;;3.45;0.80;;;18.50;90.70;;;;;;7337161;19;109194;-85
2022/06/19 05:23:51;;;;;;;6.70;0.70;;;18.30;90.40;;;;;;7340348;19;108315;-83
2022/06/19 05:26:23;;;;;;;4.13;0.77;;;18.20;90.60;;;;;;7342512;19;108826;-86
2022/06/19 05:28:52;;;;;;;5.43;0.70;;;18.10;91.10;;;;;;7338843;19;110246;-86
2022/06/19 05:31:19;;;;;;;5.13;0.77;;;18.20;91.00;;;;;;7340458;19;107371;-85
2022/06/19 05:33:46;;;;;;;4.43;0.63;;;18.30;91.30;;;;;;7339798;19;108323;-86
2022/06/19 05:36:15;;;;;;;6.90;0.77;;;18.40;91.10;;;;;;7340098;19;107937;-83
2022/06/19 05:38:43;;;;;;;3.85;0.60;;;18.40;91.10;;;;;;7339947;19;108223;-83
2022/06/19 05:41:10;;;;;;;5.10;0.70;;;18.50;91.30;;;;;;7341048;19;108280;-83
2022/06/19 05:43:38;;;;;;;3.85;0.70;;;18.30;90.80;;;;;;7339743;19;108169;-82
2022/06/19 05:46:15;;;;;;;3.40;0.40;;;18.10;91.30;;;;;;7344690;19;107351;-82
2022/06/19 05:48:43;;;;;;;5.93;0.88;;;18.20;92.20;;;;;;7338309;19;108122;-82
2022/06/19 05:51:19;;;;;;;4.65;0.77;;;18.30;91.90;;;;;;7337316;19;108384;-82
2022/06/19 05:53:52;;;;;;;2.15;0.60;;;18.50;92.10;;;;;;7338953;19;108887;-82
2022/06/19 05:56:20;;;;;;;6.30;0.80;;;18.70;92.20;;;;;;7337759;19;110242;-82
2022/06/19 05:58:47;;;;;;;4.82;0.70;;;18.80;92.00;;;;;;7338983;19;108286;-83
2022/06/19 06:01:16;;;;;;;4.05;0.70;;;18.90;92.10;;;;;;7339322;19;109608;-82
2022/06/19 06:03:44;;;;;;;6.53;0.63;;;19.00;91.90;;;;;;7339506;19;107253;-83
2022/06/19 06:06:17;;;;;;;4.50;0.60;;;19.10;91.90;;;;;;7338288;19;108234;-82
2022/06/19 06:08:44;;;;;;;5.28;0.70;;;19.10;91.80;;;;;;7342769;19;108733;-82
2022/06/19 06:11:12;;;;;;;4.13;0.57;;;19.10;91.70;;;;;;7342699;19;111260;-83
2022/06/19 06:13:40;;;;;;;3.70;0.70;;;19.10;91.40;;;;;;7344439;19;108914;-83
2022/06/19 06:16:07;;;;;;;7.15;0.80;;;19.10;91.40;;;;;;7346012;19;109195;-83
2022/06/19 06:18:35;;;;;;;11.38;0.88;;;19.10;91.20;;;;;;7347531;19;108385;-83
2022/06/19 06:21:11;;;;;;;8.80;0.70;;;19.10;91.00;;;;;;7343715;19;108862;-82
2022/06/19 06:23:38;;;;;;;4.05;0.55;;;19.10;90.90;;;;;;7342875;19;107999;-83
2022/06/19 06:26:10;;;;;;;2.30;0.70;;;19.00;90.80;;;;;;7342734;19;108375;-83
2022/06/19 06:28:41;;;;;;;5.80;0.73;;;19.00;90.60;;;;;;7344184;19;111183;-83
2022/06/19 06:31:09;;;;;;;7.05;0.88;;;18.90;90.60;;;;;;7350482;19;108995;-83
2022/06/19 06:33:36;;;;;;;5.82;0.88;;;19.00;90.90;;;;;;7344002;19;109633;-83
2022/06/19 06:36:04;;;;;;;5.22;0.75;;;18.90;91.10;;;;;;7344957;19;107259;-82
2022/06/19 06:38:32;;;;;;;2.78;0.70;;;18.80;91.50;;;;;;7346320;19;108668;-82
2022/06/19 06:40:59;;;;;;;3.55;0.65;;;18.80;91.30;;;;;;7345261;19;112188;-83
2022/06/19 06:43:27;;;;;;;5.60;1.00;;;18.60;91.10;;;;;;7342576;19;108216;-83
2022/06/19 06:45:54;;;;;;;3.13;0.90;;;18.50;91.30;;;;;;7344621;19;110386;-83
2022/06/19 06:48:21;;;;;;;2.35;0.63;;;18.40;91.20;;;;;;7343036;19;107687;-83
2022/06/19 06:50:48;;;;;;;5.10;0.90;;;18.40;91.40;;;;;;7345167;19;108235;-83
2022/06/19 06:53:16;;;;;;;6.93;1.40;;;18.30;91.60;;;;;;7349024;19;107239;-83
2022/06/19 06:55:44;;;;;;;9.80;1.25;;;18.20;91.40;;;;;;7342221;19;107116;-83
2022/06/19 06:58:12;;;;;;;3.78;0.80;;;18.10;91.60;;;;;;7344462;19;107622;-84
2022/06/19 07:00:39;;;;;;;6.28;1.08;;;18.10;92.00;;;;;;7345046;19;109230;-83
2022/06/19 07:03:06;;;;;;;7.18;0.90;;;18.00;92.40;;;;;;7344814;19;109763;-84
2022/06/19 07:05:34;;;;;;;5.40;1.23;;;17.70;93.10;;;;;;7344205;19;108250;-83
2022/06/19 07:08:01;;;;;;;7.32;1.00;;;17.40;93.90;;;;;;7345376;19;109160;-83
2022/06/19 07:10:28;;;;;;;6.80;1.25;;;17.10;95.30;;;;;;7346482;19;107923;-84
2022/06/19 07:12:55;;;;;;;8.00;1.10;;;16.80;96.30;;;;;;7343367;19;108070;-86
2022/06/19 07:15:23;;;;;;;11.10;1.25;;;16.70;96.60;;;;;;7349629;19;109237;-85
2022/06/19 07:17:51;;;;;;;10.15;1.25;;;17.00;96.80;;;;;;7344927;19;108246;-85
2022/06/19 07:20:18;;;;;;;6.63;1.00;;;17.30;96.80;;;;;;7346109;19;109199;-85
2022/06/19 07:22:45;;;;;;;7.15;1.17;;;17.50;96.90;;;;;;7343324;19;108343;-85
2022/06/19 07:25:20;;;;;;;7.60;1.25;;;17.70;97.00;;;;;;7346175;19;108081;-87
2022/06/19 07:27:48;;;;;;;9.93;1.13;;;17.80;97.40;;;;;;7343916;19;109243;-86
2022/06/19 07:30:22;;;;;;;7.30;1.17;;;17.90;97.40;;;;;;7345989;19;108220;-87
2022/06/19 07:32:49;;;;;;;9.32;1.50;;;18.00;97.60;;;;;;7345382;19;108377;-86
2022/06/19 07:35:16;;;;;;;9.25;1.63;;;18.10;98.00;;;;;;7346168;19;109383;-88
2022/06/19 07:37:44;;;;;;;8.38;1.13;;;18.00;98.60;;;;;;7351666;19;107100;-88
2022/06/19 07:40:14;;;;;;;7.97;1.33;;;17.90;99.30;;;;;;7347684;19;109034;-90
2022/06/19 07:42:41;;;;;;;9.23;1.50;;;17.80;99.90;;;;;;7347916;19;109400;-90
2022/06/19 07:45:09;;;;;;;12.55;1.65;;;17.70;99.90;;;;;;7346971;19;107152;-89
2022/06/19 07:50:23;;;;;;;9.13;1.52;;;17.70;99.90;;;;;;7348145;19;108527;-89
2022/06/19 07:52:51;;;;;;;9.50;1.30;;;17.80;99.90;;;;;;7346335;19;107685;-90
2022/06/19 07:55:21;;;;;;;7.85;1.45;;;17.80;99.90;;;;;;7347383;19;109252;-90
2022/06/19 07:57:49;;;;;;;7.10;1.58;;;17.70;99.90;;;;;;7352431;19;108496;-90
2022/06/19 08:00:22;;;;;;;8.45;1.58;;;17.60;99.90;;;;;;7345690;19;110654;-90
2022/06/19 08:02:52;;;;;;;10.15;1.75;;;17.60;99.90;;;;;;7346323;19;107476;-89
2022/06/19 08:05:21;;;;;;;12.50;1.75;;;17.70;99.90;;;;;;7346600;19;111565;-90
2022/06/19 08:07:50;;;;;;;11.15;2.00;;;17.70;99.90;;;;;;7347737;19;108953;-90
2022/06/19 08:10:33;;;;;;;8.20;1.50;;;17.50;99.90;;;;;;7348872;19;107078;-91
2022/06/19 08:13:00;;;;;;;11.43;2.13;;;17.20;99.90;;;;;;7347226;19;108602;-89
2022/06/19 08:15:29;;;;;;;8.90;1.85;;;17.10;99.90;;;;;;7347491;19;109030;-90
2022/06/19 08:17:56;;;;;;;10.52;1.58;;;16.90;99.90;;;;;;7349692;19;107310;-89
2022/06/19 08:20:24;;;;;;;8.85;1.80;;;16.70;99.90;;;;;;7352408;19;110233;-91
2022/06/19 08:22:51;;;;;;;8.45;1.60;;;16.70;99.90;;;;;;7346245;19;111384;-92
2022/06/19 08:25:20;;;;;;;13.70;2.22;;;16.80;99.90;;;;;;7346209;19;111345;-91
2022/06/19 08:27:49;;;;;;;10.55;2.30;;;16.60;99.90;;;;;;7343693;19;111380;-90
2022/06/19 08:30:23;;;;;;;10.85;1.98;;;16.40;99.90;;;;;;7345947;19;108265;-90
2022/06/19 08:32:50;;;;;;;9.65;2.17;;;16.50;99.90;;;;;;7344619;19;107839;-90
2022/06/19 08:35:18;;;;;;;7.93;2.67;;;16.80;99.90;;;;;;7346621;19;108755;-89
2022/06/19 08:37:49;;;;;;;14.60;2.60;;;17.10;99.90;;;;;;7346036;19;107995;-90
2022/06/19 08:40:32;;;;;;;11.13;2.80;;;17.20;99.90;;;;;;7347257;19;108235;-90
2022/06/19 08:43:05;;;;;;;9.98;2.30;;;17.50;99.90;;;;;;7349481;19;109562;-89
2022/06/19 08:46:02;;;;;;;11.00;3.05;;;17.60;99.90;;;;;;7346713;19;108223;-88
2022/06/19 08:48:49;;;;;;;7.63;2.83;;;17.60;99.90;;;;;;7343903;19;109076;-89
2022/06/19 08:51:42;;;;;;;14.98;3.47;;;17.90;99.90;;;;;;7345352;19;109744;-90
2022/06/19 08:55:03;;;;;;;11.15;3.78;;;18.00;99.90;;;;;;7342831;19;108724;-90
2022/06/19 08:57:33;;;;;;;15.50;2.90;;;18.00;99.90;;;;;;7342103;19;109351;-91
2022/06/19 09:00:11;;;;;;;11.20;3.05;;;18.00;99.90;;;;;;7341937;19;109658;-89
2022/06/19 09:03:06;;;;;;;10.50;2.30;;;17.90;99.90;;;;;;7342611;19;108068;-90
2022/06/19 09:05:57;;;;;;;11.38;2.67;;;17.70;99.90;;;;;;7344004;19;109284;-90
2022/06/19 09:08:42;;;;;;;9.63;2.30;;;17.50;99.90;;;;;;7349195;19;107715;-90
2022/06/19 09:11:40;;;;;;;8.52;2.28;;;17.30;99.90;;;;;;7343686;19;108088;-89
2022/06/19 09:14:22;;;;;;;11.55;2.20;;;17.40;99.90;;;;;;7341479;19;107899;-90
2022/06/19 09:17:11;;;;;;;7.65;1.92;;;17.30;99.90;;;;;;7342706;19;108135;-90
2022/06/19 09:20:21;;;;;;;9.55;2.50;;;17.40;99.90;;;;;;7342471;19;108959;-89
2022/06/19 09:23:16;;;;;;;10.93;2.35;;;17.50;99.90;;;;;;7341820;19;110041;-88
2022/06/19 09:25:55;;;;;;;8.80;2.38;;;17.30;99.90;;;;;;7340612;19;108553;-88
2022/06/19 09:28:36;;;;;;;9.45;2.75;;;17.30;99.90;;;;;;7337585;19;108180;-89
2022/06/19 09:31:24;;;;;;;11.82;2.40;;;17.30;99.90;;;;;;7342846;19;108149;-87
2022/06/19 09:34:12;;;;;;;8.38;2.13;;;17.40;99.90;;;;;;7347548;19;108331;-86
2022/06/19 09:36:56;;;;;;;7.65;2.15;;;17.40;99.90;;;;;;7343597;19;107939;-89
2022/06/19 09:39:32;;;;;;;9.48;2.10;;;17.50;99.90;;;;;;7343010;19;107265;-89
2022/06/19 09:42:18;;;;;;;8.80;2.40;;;17.70;99.90;;;;;;7343452;19;109016;-90
2022/06/19 09:45:15;;;;;;;6.78;2.10;;;17.90;99.90;;;;;;7346089;19;108278;-88
2022/06/19 09:47:57;;;;;;;9.02;1.88;;;18.20;99.90;;;;;;7348053;19;110119;-89
2022/06/19 09:50:53;;;;;;;7.83;1.90;;;18.40;99.90;;;;;;7350967;19;109122;-89
2022/06/19 09:53:32;;;;;;;6.22;1.67;;;18.70;99.90;;;;;;7349899;19;108350;-88
2022/06/19 09:56:36;;;;;;;7.90;1.88;;;18.80;99.90;;;;;;7352671;19;110411;-89
2022/06/19 09:59:05;;;;;;;11.38;1.95;;;18.60;99.90;;;;;;7347442;19;108301;-84
2022/06/19 10:01:33;;;;;;;8.60;1.70;;;18.50;99.90;;;;;;7347992;19;108300;-84
2022/06/19 10:04:10;;;;;;;6.40;1.67;;;18.50;99.90;;;;;;7346606;19;109107;-84
2022/06/19 10:06:50;;;;;;;9.40;1.80;;;18.70;99.90;;;;;;7348004;19;110747;-84
2022/06/19 10:09:39;;;;;;;7.15;2.25;;;18.70;99.90;;;;;;7346468;19;110925;-84
2022/06/19 10:12:14;;;;;;;7.43;1.88;;;18.70;99.90;;;;;;7348609;19;110065;-84
2022/06/19 10:14:48;;;;;;;9.27;1.75;;;18.80;99.90;;;;;;7346273;19;108254;-84
2022/06/19 10:17:29;;;;;;;8.57;1.75;;;18.80;99.90;;;;;;7346111;19;108232;-84
2022/06/19 10:20:16;;;;;;;6.78;1.88;;;19.00;99.90;;;;;;7353580;19;109014;-83
2022/06/19 10:23:24;;;;;;;7.68;2.00;;;19.10;99.90;;;;;;7348046;19;108218;-84
2022/06/19 10:26:37;;;;;;;7.82;1.90;;;19.20;99.90;;;;;;7344243;19;108384;-83
2022/06/19 10:29:16;;;;;;;7.15;1.83;;;19.30;99.90;;;;;;7343990;19;107879;-83
2022/06/19 10:31:57;;;;;;;6.40;1.92;;;19.60;99.90;;;;;;7344254;19;108137;-83
2022/06/19 10:34:35;;;;;;;10.25;1.98;;;19.60;99.90;;;;;;7343035;19;109167;-83
2022/06/19 10:37:35;;;;;;;7.05;1.98;;;19.40;99.90;;;;;;7344321;19;108020;-83
2022/06/19 10:40:07;;;;;;;7.97;1.70;;;19.50;99.90;;;;;;7344362;19;108251;-83
2022/06/19 10:42:55;;;;;;;7.63;1.60;;;19.60;99.90;;;;;;7344225;19;109194;-84
2022/06/19 10:45:28;;;;;;;9.18;1.90;;;19.90;99.90;;;;;;7349081;19;107952;-83
2022/06/19 10:48:04;;;;;;;6.10;1.85;;;20.10;99.90;;;;;;7343976;19;109549;-83
2022/06/19 10:50:51;;;;;;;6.80;1.63;;;20.10;99.90;;;;;;7342828;19;107992;-84
2022/06/19 10:53:56;;;;;;;9.85;2.08;;;20.10;99.90;;;;;;7343660;19;108149;-82
2022/06/19 10:56:35;;;;;;;7.25;1.63;;;20.10;99.90;;;;;;7342279;19;109553;-83
2022/06/19 10:59:04;;;;;;;6.53;1.83;;;19.90;99.90;;;;;;7343042;19;108291;-83
2022/06/19 11:04:34;;;;;;;6.95;1.55;;;20.20;99.90;;;;;;7347044;19;109060;-84
2022/06/19 11:07:07;;;;;;;3.85;1.23;;;20.30;99.80;;;;;;7345871;19;107980;-83
2022/06/19 11:09:50;;;;;;;10.18;2.00;;;20.20;99.90;;;;;;7352976;19;108259;-83
2022/06/19 11:12:20;;;;;;;9.10;1.98;;;20.30;99.90;;;;;;7346898;19;110018;-84
2022/06/19 11:14:55;;;;;;;15.05;1.80;;;20.30;99.90;;;;;;7346049;19;111023;-84
2022/06/19 11:17:37;;;;;;;10.98;2.45;;;20.40;99.90;;;;;;7346776;19;108368;-83
2022/06/19 11:20:16;;;;;;;9.07;2.38;;;20.50;99.80;;;;;;7347156;19;107979;-83
2022/06/19 11:22:49;;;;;;;7.00;2.08;;;20.40;99.70;;;;;;7347985;19;109324;-83
2022/06/19 11:25:19;;;;;;;7.82;1.70;;;20.40;99.90;;;;;;7346876;19;108823;-83
2022/06/19 11:27:55;;;;;;;14.20;1.60;;;20.50;99.90;;;;;;7344871;19;107197;-83
2022/06/19 11:30:34;;;;;;;6.82;1.60;;;20.60;99.90;;;;;;7345870;19;108271;-83
2022/06/19 11:33:15;;;;;;;7.38;1.50;;;20.60;99.10;;;;;;7352497;19;108928;-84
2022/06/19 11:35:57;;;;;;;5.72;1.60;;;20.60;99.10;;;;;;7344713;19;108137;-83
2022/06/19 11:38:43;;;;;;;6.20;1.42;;;20.90;98.90;;;;;;7346738;19;111669;-83
2022/06/19 11:41:28;;;;;;;8.90;1.40;;;21.10;98.40;;;;;;7347017;19;106863;-84
2022/06/19 11:44:15;;;;;;;6.22;1.33;;;21.00;98.10;;;;;;7345701;19;107515;-82
2022/06/19 11:46:54;;;;;;;5.05;1.75;;;20.90;98.40;;;;;;7345174;19;109262;-82
2022/06/19 11:49:31;;;;;;;6.32;1.40;;;21.10;98.10;;;;;;7345283;19;107119;-83
2022/06/19 11:52:07;;;;;;;6.22;1.60;;;21.30;97.90;;;;;;7345027;19;108113;-82
2022/06/19 11:54:43;;;;;;;4.93;1.40;;;21.40;97.70;;;;;;7343978;19;111159;-82
2022/06/19 11:57:29;;;;;;;6.80;1.45;;;21.60;97.90;;;;;;7350754;19;107569;-83
2022/06/19 11:59:59;;;;;;;5.80;1.30;;;21.80;97.30;;;;;;7345718;19;109279;-82
2022/06/19 12:02:37;;;;;;;6.47;1.35;;;21.90;96.70;;;;;;7345569;19;108050;-83
2022/06/19 12:05:27;;;;;;;5.68;1.20;;;21.90;96.00;;;;;;7344779;19;108229;-83
2022/06/19 12:07:59;;;;;;;4.90;1.40;;;21.60;95.80;;;;;;7343058;19;107909;-83
2022/06/19 12:10:30;;;;;;;6.80;1.30;;;21.50;96.40;;;;;;7344758;19;107988;-83
2022/06/19 12:13:00;;;;;;;7.13;1.58;;;21.60;96.40;;;;;;7345042;19;107749;-82
2022/06/19 12:15:33;;;;;;;6.60;1.67;;;21.70;96.20;;;;;;7343234;19;108856;-82
2022/06/19 12:18:15;;;;;;;6.80;1.50;;;21.80;96.00;;;;;;7350300;19;107805;-82
2022/06/19 12:20:42;;;;;;;6.68;1.73;;;22.00;96.40;;;;;;7345410;19;109183;-82
2022/06/19 12:23:21;;;;;;;4.93;1.50;;;22.30;96.40;;;;;;7345323;19;107943;-82
2022/06/19 12:25:58;;;;;;;5.63;1.50;;;22.40;95.20;;;;;;7345446;19;111295;-82
2022/06/19 12:28:35;;;;;;;7.00;1.42;;;22.50;95.40;;;;;;7342380;19;112475;-82
2022/06/19 12:31:05;;;;;;;7.00;1.85;;;22.60;94.80;;;;;;7343418;19;107994;-82
2022/06/19 12:33:55;;;;;;;6.30;1.63;;;22.50;94.10;;;;;;7344565;19;107183;-83
2022/06/19 12:36:28;;;;;;;7.18;1.48;;;22.40;93.90;;;;;;7344801;19;109083;-82
2022/06/19 12:38:55;;;;;;;6.70;1.35;;;22.20;93.90;;;;;;7345257;19;107970;-82
2022/06/19 12:41:28;;;;;;;3.85;1.42;;;22.00;95.00;;;;;;7349919;19;108265;-83
2022/06/19 12:44:04;;;;;;;5.18;1.50;;;22.10;95.50;;;;;;7344497;19;107212;-82
2022/06/19 12:46:49;;;;;;;7.57;1.90;;;22.10;95.40;;;;;;7345126;19;108222;-83
2022/06/19 12:49:40;;;;;;;5.93;1.50;;;21.80;95.20;;;;;;7343240;19;112203;-81
2022/06/19 12:52:20;;;;;;;7.30;1.88;;;21.70;96.00;;;;;;7342054;19;107903;-82
2022/06/19 12:54:50;;;;;;;6.70;1.77;;;21.80;96.20;;;;;;7342095;19;112443;-82
2022/06/19 12:57:29;;;;;;;5.63;1.63;;;22.10;96.80;;;;;;7343648;19;112481;-83
2022/06/19 13:00:04;;;;;;;9.45;2.35;;;22.20;96.30;;;;;;7342335;19;107985;-82
2022/06/19 13:02:50;;;;;;;7.80;1.77;;;22.30;96.10;;;;;;7341634;19;107393;-82
2022/06/19 13:05:17;;;;;;;4.68;2.20;;;22.40;95.80;;;;;;7347589;19;109348;-82
2022/06/19 13:08:06;;;;;;;8.57;1.70;;;22.20;95.70;;;;;;7344127;19;108404;-83
2022/06/19 13:11:05;;;;;;;7.22;1.95;;;22.10;95.70;;;;;;7343740;19;108945;-82
2022/06/19 13:14:14;;;;;;;7.00;2.10;;;22.10;95.80;;;;;;7340957;19;107965;-82